Washington, District of Columbia
Traffic Map
Current Weather Conditions
Washington, District of Columbia
Scattered Clouds
Scattered Clouds
11°
Feels Like: 11°
Wind Chill: 11° Ceiling: Unl
Heat Index: 11° Visibility: 10mi
Dew Point: Wind: 9mph
Humidity: 57% Direction: 50° (NE)
Pressure: 29.86in Gusts: 0mph
Raw Report DataKDCA 010252Z 05008KT 10SM SCT055 SCT200 11/03 A2986 RMK AO2 SLP111 T01110028 56002
Traffic Incident Summary
Active as of:
Severity:
Category:
InformationThere was an issue retrieving the traffic information for this location. Please try a different location or try again shortly.
Advertisements
Track Severe Weather on mobile